Time;durP1;ratioP1;P1;durP2;ratioP2;P2;SDS_P1;SDS_P2;PMS_P1;PMS_P2;Temp;Humidity;BMP_temperature;BMP_pressure;BME280_temperature;BME280_humidity;BME280_pressure;Samples;Min_cycle;Max_cycle;Signal;HPM_P1;HPM_P2
2024/02/13 06:53:37;;;;;;;;;4.00;4.00;;;;;;;;5104677;27;13453;-69
2024/02/13 06:56:02;;;;;;;;;9.33;7.67;;;;;;;;5087421;28;8799;-66
2024/02/13 06:58:27;;;;;;;;;10.67;7.00;;;;;;;;5087283;28;8791;-69
2024/02/13 07:00:53;;;;;;;;;10.00;6.33;;;;;;;;5087439;28;8891;-67
2024/02/13 07:03:18;;;;;;;;;11.33;8.33;;;;;;;;5087142;28;8833;-67
2024/02/13 07:05:44;;;;;;;;;8.00;7.00;;;;;;;;5087250;28;8845;-68
2024/02/13 07:08:09;;;;;;;;;9.00;7.00;;;;;;;;5087480;28;8802;-66
2024/02/13 07:10:34;;;;;;;;;8.00;7.00;;;;;;;;5086062;28;8821;-66
2024/02/13 07:12:59;;;;;;;;;10.50;10.00;;;;;;;;5087238;28;8841;-67
2024/02/13 07:15:25;;;;;;;;;9.25;7.25;;;;;;;;5087336;28;9500;-67
2024/02/13 07:17:51;;;;;;;;;7.50;7.25;;;;;;;;5087366;28;8824;-68
2024/02/13 07:20:16;;;;;;;;;8.00;7.00;;;;;;;;5087289;28;8791;-67
2024/02/13 07:22:42;;;;;;;;;2.50;1.00;;;;;;;;5084056;28;8992;-67
2024/02/13 07:25:08;;;;;;;;;10.00;7.00;;;;;;;;5087342;28;8799;-66
2024/02/13 07:27:35;;;;;;;;;7.25;7.00;;;;;;;;5086996;28;8802;-67
2024/02/13 07:30:01;;;;;;;;;7.25;6.75;;;;;;;;5086279;28;11459;-66
2024/02/13 07:32:27;;;;;;;;;2.00;2.00;;;;;;;;5086669;28;11484;-67
2024/02/13 07:34:52;;;;;;;;;7.25;7.00;;;;;;;;5086396;28;11490;-67
2024/02/13 07:37:17;;;;;;;;;17.25;16.75;;;;;;;;5086204;28;8811;-67
2024/02/13 07:39:43;;;;;;;;;7.00;4.75;;;;;;;;5085389;28;8826;-67
2024/02/13 07:42:10;;;;;;;;;6.25;6.25;;;;;;;;5086694;28;8803;-67
2024/02/13 07:44:36;;;;;;;;;8.00;5.00;;;;;;;;5086721;28;8814;-67
2024/02/13 07:47:01;;;;;;;;;7.50;7.50;;;;;;;;5086402;28;11549;-67
2024/02/13 07:49:26;;;;;;;;;8.00;4.50;;;;;;;;5086220;28;11461;-67
2024/02/13 07:51:52;;;;;;;;;6.50;5.00;;;;;;;;5086050;28;8929;-67
2024/02/13 07:54:21;;;;;;;;;35.33;32.00;;;;;;;;5086809;28;8805;-66
2024/02/13 07:56:47;;;;;;;;;13.00;11.00;;;;;;;;5086691;28;8913;-67
2024/02/13 07:59:14;;;;;;;;;9.50;8.50;;;;;;;;5086534;28;11682;-66
2024/02/13 08:01:40;;;;;;;;;15.00;13.00;;;;;;;;5085445;28;9570;-67
2024/02/13 08:04:05;;;;;;;;;9.00;9.00;;;;;;;;5076399;28;11677;-67
2024/02/13 08:06:31;;;;;;;;;10.50;8.25;;;;;;;;5072877;28;8901;-67
2024/02/13 08:08:56;;;;;;;;;16.25;13.00;;;;;;;;5073075;28;8818;-67
2024/02/13 08:11:21;;;;;;;;;12.00;11.00;;;;;;;;5072889;28;8778;-68
2024/02/13 08:13:47;;;;;;;;;16.00;12.50;;;;;;;;5071780;28;9563;-68
2024/02/13 08:16:13;;;;;;;;;12.25;12.00;;;;;;;;5072989;28;8806;-68
2024/02/13 08:18:40;;;;;;;;;15.00;14.25;;;;;;;;5072923;28;8849;-69
2024/02/13 08:21:05;;;;;;;;;13.25;11.50;;;;;;;;5072480;28;11121;-68
2024/02/13 08:23:31;;;;;;;;;12.00;11.25;;;;;;;;5073224;28;10999;-66
2024/02/13 08:25:56;;;;;;;;;17.25;15.50;;;;;;;;5071339;28;8810;-66
2024/02/13 08:28:22;;;;;;;;;16.50;15.00;;;;;;;;5072615;28;8833;-66
2024/02/13 08:30:50;;;;;;;;;12.25;11.00;;;;;;;;5072547;28;8829;-66
2024/02/13 08:33:16;;;;;;;;;14.50;13.25;;;;;;;;5072677;28;8857;-66
2024/02/13 08:35:42;;;;;;;;;14.50;10.00;;;;;;;;5072359;28;11433;-67
2024/02/13 08:38:07;;;;;;;;;9.75;9.75;;;;;;;;5071248;28;11521;-67
2024/02/13 08:40:33;;;;;;;;;13.00;11.25;;;;;;;;5072480;28;8778;-67
2024/02/13 08:42:58;;;;;;;;;12.00;10.50;;;;;;;;5072274;28;8798;-67
2024/02/13 08:45:24;;;;;;;;;10.00;9.75;;;;;;;;5072457;28;9624;-67
2024/02/13 08:47:50;;;;;;;;;14.00;11.50;;;;;;;;5072318;28;8905;-67
2024/02/13 08:50:15;;;;;;;;;12.00;12.00;;;;;;;;5071792;28;11596;-67
2024/02/13 08:52:40;;;;;;;;;14.00;12.00;;;;;;;;5072000;28;8957;-67
2024/02/13 08:55:07;;;;;;;;;13.50;13.00;;;;;;;;5072129;28;8806;-67
2024/02/13 08:57:32;;;;;;;;;15.75;12.00;;;;;;;;5072179;28;8806;-68
2024/02/13 08:59:57;;;;;;;;;20.00;18.50;;;;;;;;5072184;28;11472;-67
2024/02/13 09:02:23;;;;;;;;;20.50;17.00;;;;;;;;5072239;28;8782;-68
2024/02/13 09:04:48;;;;;;;;;22.00;18.75;;;;;;;;5071740;28;8901;-68
2024/02/13 09:07:13;;;;;;;;;19.00;15.00;;;;;;;;5071998;28;8856;-70
2024/02/13 09:09:39;;;;;;;;;19.25;15.75;;;;;;;;5070497;28;8802;-70
2024/02/13 09:12:04;;;;;;;;;17.50;13.00;;;;;;;;5070367;28;8856;-70
2024/02/13 09:14:33;;;;;;;;;19.75;15.00;;;;;;;;5070302;28;8783;-68
2024/02/13 09:16:59;;;;;;;;;16.50;16.50;;;;;;;;5070686;28;8798;-69
2024/02/13 09:19:25;;;;;;;;;15.50;15.00;;;;;;;;5071832;28;11510;-70
2024/02/13 09:21:51;;;;;;;;;18.75;15.50;;;;;;;;5071976;28;8798;-70
2024/02/13 09:24:16;;;;;;;;;19.50;16.00;;;;;;;;5071769;28;12326;-74
2024/02/13 09:26:41;;;;;;;;;15.75;13.00;;;;;;;;5071802;28;8791;-73
2024/02/13 09:29:06;;;;;;;;;19.25;16.00;;;;;;;;5070500;28;8832;-72
2024/02/13 09:31:33;;;;;;;;;22.00;19.25;;;;;;;;5071758;28;8903;-79
2024/02/13 09:33:58;;;;;;;;;22.50;18.00;;;;;;;;5071989;28;8835;-72
2024/02/13 09:36:23;;;;;;;;;26.50;23.25;;;;;;;;5071296;28;11506;-72
2024/02/13 09:38:48;;;;;;;;;7.75;3.25;;;;;;;;5071690;28;9667;-73
2024/02/13 09:41:14;;;;;;;;;24.75;22.75;;;;;;;;5071676;28;8775;-74
2024/02/13 09:43:40;;;;;;;;;26.50;26.25;;;;;;;;5071551;28;8900;-71
2024/02/13 09:46:06;;;;;;;;;24.00;22.50;;;;;;;;5071448;28;9578;-72
2024/02/13 09:48:33;;;;;;;;;25.75;24.25;;;;;;;;5060999;28;8822;-73
2024/02/13 09:51:02;;;;;;;;;28.00;22.25;;;;;;;;5071157;28;11483;-72
2024/02/13 09:53:28;;;;;;;;;32.25;28.25;;;;;;;;5070796;28;11533;-72
2024/02/13 09:56:00;;;;;;;;;29.75;22.75;;;;;;;;5069560;28;11631;-65
2024/02/13 09:58:25;;;;;;;;;30.50;27.00;;;;;;;;5071188;28;8881;-65
2024/02/13 10:00:51;;;;;;;;;32.00;23.50;;;;;;;;5070923;28;12248;-65
2024/02/13 10:03:17;;;;;;;;;24.50;23.00;;;;;;;;5070847;28;8821;-65
2024/02/13 10:05:42;;;;;;;;;10.00;6.00;;;;;;;;5070655;28;9492;-66
2024/02/13 10:08:08;;;;;;;;;23.00;16.75;;;;;;;;5069702;28;8838;-66
2024/02/13 10:10:34;;;;;;;;;29.25;22.50;;;;;;;;5071188;28;8786;-65
2024/02/13 10:13:00;;;;;;;;;27.00;22.75;;;;;;;;5070812;28;8944;-65
2024/02/13 10:15:42;;;;;;;;;30.00;24.75;;;;;;;;5071037;28;8795;-67
2024/02/13 10:18:08;;;;;;;;;23.00;23.00;;;;;;;;5070928;28;11466;-66
2024/02/13 10:20:34;;;;;;;;;21.00;19.75;;;;;;;;5068860;28;11499;-66
2024/02/13 10:23:00;;;;;;;;;24.50;22.75;;;;;;;;5070490;28;11507;-66
2024/02/13 10:25:31;;;;;;;;;23.75;22.25;;;;;;;;5070665;28;8813;-66
2024/02/13 10:28:00;;;;;;;;;27.25;21.50;;;;;;;;5070327;28;11510;-66
2024/02/13 10:30:27;;;;;;;;;24.25;22.00;;;;;;;;5070565;28;11523;-74
2024/02/13 10:32:52;;;;;;;;;24.50;21.25;;;;;;;;5070597;28;11589;-73
2024/02/13 10:35:21;;;;;;;;;24.00;19.50;;;;;;;;5070609;28;11489;-74
2024/02/13 10:37:47;;;;;;;;;20.50;18.75;;;;;;;;5070581;28;8783;-72
2024/02/13 10:40:20;;;;;;;;;23.00;22.75;;;;;;;;5070357;28;11515;-73
2024/02/13 10:42:45;;;;;;;;;21.00;18.75;;;;;;;;5070518;28;8879;-73
2024/02/13 10:45:13;;;;;;;;;24.75;21.00;;;;;;;;5070299;28;11495;-76
2024/02/13 10:47:42;;;;;;;;;24.50;20.50;;;;;;;;5068655;28;8783;-75
2024/02/13 10:50:08;;;;;;;;;22.00;20.00;;;;;;;;5070254;28;11545;-77
2024/02/13 10:52:35;;;;;;;;;25.25;23.00;;;;;;;;5070160;28;11560;-78
2024/02/13 10:55:06;;;;;;;;;19.00;19.00;;;;;;;;5069168;28;8875;-76
2024/02/13 10:57:33;;;;;;;;;23.25;20.50;;;;;;;;5070368;28;11490;-74
2024/02/13 10:59:59;;;;;;;;;21.75;21.75;;;;;;;;5070322;28;11608;-75
2024/02/13 11:02:24;;;;;;;;;20.75;17.00;;;;;;;;5070193;28;11687;-77
2024/02/13 11:04:51;;;;;;;;;23.25;19.00;;;;;;;;5070050;28;8795;-73
2024/02/13 11:07:17;;;;;;;;;18.50;17.00;;;;;;;;5102894;28;8846;-75
2024/02/13 11:09:43;;;;;;;;;20.33;18.33;;;;;;;;5070314;28;10545;-77
2024/02/13 11:12:11;;;;;;;;;19.33;18.33;;;;;;;;5070200;28;8897;-74
2024/02/13 11:14:37;;;;;;;;;23.00;17.33;;;;;;;;5070194;28;8786;-75
2024/02/13 11:17:08;;;;;;;;;19.00;17.00;;;;;;;;5069791;28;9109;-77
2024/02/13 11:19:54;;;;;;;;;18.00;16.33;;;;;;;;5069964;28;8925;-77
2024/02/13 11:22:31;;;;;;;;;17.33;16.67;;;;;;;;5068929;28;8948;-70
2024/02/13 11:25:04;;;;;;;;;17.25;16.00;;;;;;;;5069750;28;8950;-75
2024/02/13 11:27:31;;;;;;;;;21.67;19.00;;;;;;;;5066970;28;8794;-76
2024/02/13 11:29:58;;;;;;;;;19.00;16.00;;;;;;;;5069648;28;9023;-76
2024/02/13 11:32:29;;;;;;;;;18.00;16.67;;;;;;;;5068183;28;8968;-76
2024/02/13 11:34:56;;;;;;;;;16.00;16.00;;;;;;;;5067852;28;8945;-76
2024/02/13 11:37:27;;;;;;;;;16.00;16.00;;;;;;;;5068023;28;9769;-75
2024/02/13 11:39:53;;;;;;;;;18.33;15.00;;;;;;;;5070835;28;9182;-76
2024/02/13 11:42:19;;;;;;;;;15.75;14.75;;;;;;;;5070255;28;9302;-76
2024/02/13 11:44:46;;;;;;;;;14.50;13.25;;;;;;;;5071728;28;9554;-76
2024/02/13 11:47:12;;;;;;;;;16.00;14.25;;;;;;;;5071719;28;9667;-75
2024/02/13 11:49:37;;;;;;;;;16.50;13.00;;;;;;;;5073550;28;9804;-76
2024/02/13 11:52:03;;;;;;;;;18.75;16.75;;;;;;;;5073444;28;8806;-75
2024/02/13 11:54:35;;;;;;;;;20.00;16.00;;;;;;;;5074021;28;9515;-76
2024/02/13 11:57:00;;;;;;;;;17.25;13.75;;;;;;;;5073724;28;10333;-76
2024/02/13 11:59:26;;;;;;;;;12.25;12.25;;;;;;;;5073601;28;10370;-76
2024/02/13 12:01:52;;;;;;;;;18.00;14.25;;;;;;;;5073451;28;9552;-76
2024/02/13 12:04:18;;;;;;;;;16.50;15.00;;;;;;;;5073371;28;9545;-75
2024/02/13 12:06:44;;;;;;;;;18.00;16.25;;;;;;;;5073258;28;10672;-75
2024/02/13 12:09:12;;;;;;;;;18.75;12.50;;;;;;;;5073409;28;10660;-76
2024/02/13 12:11:37;;;;;;;;;16.25;14.50;;;;;;;;5073495;28;8802;-76
2024/02/13 12:14:03;;;;;;;;;15.75;15.50;;;;;;;;5105841;28;10905;-76
2024/02/13 12:16:29;;;;;;;;;11.25;11.25;;;;;;;;5073757;28;8790;-76
2024/02/13 12:18:58;;;;;;;;;15.75;11.50;;;;;;;;5071488;28;8844;-76
2024/02/13 12:21:25;;;;;;;;;15.00;14.00;;;;;;;;5071503;28;10659;-76
2024/02/13 12:23:50;;;;;;;;;14.75;14.75;;;;;;;;5073202;28;10924;-76
2024/02/13 12:26:16;;;;;;;;;19.50;18.50;;;;;;;;5072803;28;11492;-76
2024/02/13 12:28:43;;;;;;;;;5.00;4.50;;;;;;;;5072997;28;8779;-76
2024/02/13 12:31:08;;;;;;;;;25.00;19.25;;;;;;;;5072844;28;10799;-77
2024/02/13 12:33:36;;;;;;;;;15.75;13.00;;;;;;;;5072700;28;11475;-76
2024/02/13 12:36:07;;;;;;;;;18.00;16.50;;;;;;;;5072673;28;8806;-76
2024/02/13 12:38:36;;;;;;;;;20.00;18.50;;;;;;;;5072652;28;10999;-77
2024/02/13 12:41:03;;;;;;;;;9.00;9.00;;;;;;;;5072636;28;11130;-77
2024/02/13 12:43:29;;;;;;;;;9.75;8.50;;;;;;;;5072657;28;10631;-77
2024/02/13 12:46:05;;;;;;;;;10.00;9.00;;;;;;;;5072426;28;10464;-76
2024/02/13 12:48:36;;;;;;;;;7.50;6.00;;;;;;;;5072667;28;8802;-76
2024/02/13 12:51:08;;;;;;;;;6.50;6.50;;;;;;;;5072451;28;10651;-75
2024/02/13 12:53:34;;;;;;;;;5.50;5.00;;;;;;;;5072433;28;10585;-76
2024/02/13 12:55:59;;;;;;;;;9.00;6.50;;;;;;;;5072337;28;10680;-76
2024/02/13 12:58:25;;;;;;;;;5.00;5.00;;;;;;;;5072413;28;8790;-76
2024/02/13 13:00:51;;;;;;;;;2.00;1.75;;;;;;;;5072323;28;8779;-76
2024/02/13 13:03:19;;;;;;;;;3.00;2.00;;;;;;;;5072525;28;9664;-75
2024/02/13 13:05:44;;;;;;;;;2.00;1.50;;;;;;;;5072042;28;8782;-75
2024/02/13 13:08:14;;;;;;;;;2.00;2.00;;;;;;;;5068926;28;10591;-74
2024/02/13 13:10:39;;;;;;;;;2.25;2.25;;;;;;;;5072461;28;9728;-74
2024/02/13 13:13:06;;;;;;;;;2.00;2.00;;;;;;;;5071966;28;10581;-76
2024/02/13 13:15:32;;;;;;;;;2.00;2.00;;;;;;;;5071684;28;8787;-75
2024/02/13 13:18:01;;;;;;;;;2.25;1.00;;;;;;;;5072403;28;10459;-73
2024/02/13 13:20:28;;;;;;;;;1.25;1.25;;;;;;;;5071678;28;10304;-71
2024/02/13 13:22:53;;;;;;;;;2.00;1.00;;;;;;;;5071271;28;10335;-72
2024/02/13 13:25:23;;;;;;;;;1.00;1.00;;;;;;;;5071763;28;10238;-73
2024/02/13 13:27:50;;;;;;;;;1.75;1.75;;;;;;;;5071605;28;8782;-74
2024/02/13 13:30:17;;;;;;;;;1.00;1.00;;;;;;;;5071697;28;10312;-74
2024/02/13 13:32:44;;;;;;;;;2.00;2.00;;;;;;;;5071639;28;10298;-75
2024/02/13 13:35:13;;;;;;;;;2.25;2.00;;;;;;;;5071266;28;11120;-72
2024/02/13 13:37:40;;;;;;;;;1.00;1.00;;;;;;;;5071216;28;10399;-72
2024/02/13 13:40:12;;;;;;;;;2.00;1.00;;;;;;;;5071586;28;10309;-73
2024/02/13 13:42:43;;;;;;;;;1.50;1.50;;;;;;;;5071234;28;10262;-72
2024/02/13 13:45:10;;;;;;;;;2.50;2.50;;;;;;;;5071262;28;10442;-72
2024/02/13 13:47:35;;;;;;;;;1.00;1.00;;;;;;;;5071026;28;11303;-83
2024/02/13 13:50:00;;;;;;;;;2.00;0.00;;;;;;;;5070854;28;10164;-80
2024/02/13 13:52:26;;;;;;;;;0.00;0.00;;;;;;;;5070459;28;8871;-75
2024/02/13 13:54:52;;;;;;;;;2.00;2.00;;;;;;;;5070792;28;8953;-74
2024/02/13 13:57:17;;;;;;;;;0.00;0.00;;;;;;;;5070515;28;8879;-74
2024/02/13 13:59:42;;;;;;;;;0.75;0.75;;;;;;;;5070655;28;8813;-73
2024/02/13 14:02:07;;;;;;;;;0.50;0.50;;;;;;;;5068863;28;8838;-73
2024/02/13 14:04:33;;;;;;;;;1.00;1.00;;;;;;;;5070435;28;8795;-74
2024/02/13 14:06:59;;;;;;;;;1.75;0.00;;;;;;;;5070192;28;8918;-74
2024/02/13 14:09:24;;;;;;;;;1.00;1.00;;;;;;;;5070479;28;8986;-73
2024/02/13 14:11:51;;;;;;;;;1.25;1.00;;;;;;;;5070067;28;8833;-73
2024/02/13 14:14:17;;;;;;;;;2.00;1.00;;;;;;;;5070461;28;8801;-73
2024/02/13 14:16:43;;;;;;;;;6.75;5.75;;;;;;;;5069079;28;10123;-74
2024/02/13 14:19:08;;;;;;;;;3.00;3.00;;;;;;;;5069932;28;8797;-75
2024/02/13 14:21:34;;;;;;;;;1.00;1.00;;;;;;;;5070161;28;8791;-73
2024/02/13 14:23:59;;;;;;;;;0.00;0.00;;;;;;;;5070030;28;8810;-73
2024/02/13 14:26:25;;;;;;;;;2.00;2.00;;;;;;;;5068679;28;8815;-73
2024/02/13 14:28:50;;;;;;;;;1.00;1.00;;;;;;;;5070554;28;8803;-74
2024/02/13 14:31:17;;;;;;;;;1.00;1.00;;;;;;;;5069336;28;8880;-74
2024/02/13 14:33:43;;;;;;;;;2.00;2.00;;;;;;;;5070572;28;8836;-74
2024/02/13 14:36:09;;;;;;;;;1.00;1.00;;;;;;;;5069953;28;10388;-73
2024/02/13 14:38:35;;;;;;;;;1.25;1.25;;;;;;;;5069752;28;10257;-73
2024/02/13 14:41:01;;;;;;;;;1.00;1.00;;;;;;;;5072596;28;8795;-74
2024/02/13 14:43:27;;;;;;;;;2.75;2.75;;;;;;;;5069171;28;10314;-75
2024/02/13 14:45:58;;;;;;;;;1.50;1.50;;;;;;;;5068593;28;8850;-75
2024/02/13 14:48:23;;;;;;;;;0.00;0.00;;;;;;;;5052334;28;10359;-74
2024/02/13 14:50:49;;;;;;;;;6.25;5.00;;;;;;;;5068961;28;10214;-75
2024/02/13 14:53:20;;;;;;;;;1.75;1.75;;;;;;;;5069496;28;8818;-74
2024/02/13 14:55:45;;;;;;;;;0.00;0.00;;;;;;;;5070419;28;8798;-74
2024/02/13 14:58:10;;;;;;;;;2.00;1.00;;;;;;;;5070273;28;10095;-74
2024/02/13 15:00:36;;;;;;;;;1.50;0.75;;;;;;;;5069071;28;8822;-74
2024/02/13 15:03:01;;;;;;;;;0.50;0.50;;;;;;;;5070118;28;8907;-75
2024/02/13 15:05:27;;;;;;;;;1.00;1.00;;;;;;;;5070009;28;8816;-74
2024/02/13 15:07:53;;;;;;;;;4.00;2.00;;;;;;;;5069939;28;8802;-74
2024/02/13 15:10:19;;;;;;;;;1.00;1.00;;;;;;;;5070159;28;8771;-75
2024/02/13 15:12:44;;;;;;;;;1.00;1.00;;;;;;;;5070210;28;10272;-75
2024/02/13 15:15:15;;;;;;;;;1.00;1.00;;;;;;;;5073583;28;8775;-74
2024/02/13 15:17:40;;;;;;;;;0.00;0.00;;;;;;;;5074772;28;8779;-74
2024/02/13 15:20:06;;;;;;;;;1.75;0.00;;;;;;;;5074072;28;10686;-74
2024/02/13 15:22:33;;;;;;;;;1.00;1.00;;;;;;;;5073868;28;8828;-74
2024/02/13 15:24:58;;;;;;;;;1.00;1.00;;;;;;;;5074033;28;9955;-74
2024/02/13 15:27:24;;;;;;;;;2.50;2.00;;;;;;;;5074007;28;9939;-75
2024/02/13 15:29:49;;;;;;;;;9.50;8.50;;;;;;;;5074012;28;8798;-77
2024/02/13 15:32:15;;;;;;;;;14.25;14.25;;;;;;;;5073810;28;8812;-76
2024/02/13 15:34:41;;;;;;;;;10.00;10.00;;;;;;;;5073290;28;8790;-77
2024/02/13 15:47:44;;;;;;;;;4.00;4.00;;;;;;;;5067728;28;10610;-74
2024/02/13 15:50:18;;;;;;;;;3.00;2.00;;;;;;;;5071811;28;10007;-77
2024/02/13 15:52:43;;;;;;;;;2.00;2.00;;;;;;;;5075799;28;8826;-72
2024/02/13 15:55:10;;;;;;;;;1.50;1.50;;;;;;;;5071834;28;9699;-72
2024/02/13 15:57:38;;;;;;;;;0.75;0.00;;;;;;;;5071951;28;8806;-73
2024/02/13 16:00:07;;;;;;;;;3.25;3.00;;;;;;;;5071358;28;10306;-75
2024/02/13 16:02:33;;;;;;;;;4.00;4.00;;;;;;;;5071526;28;9876;-72
2024/02/13 16:04:59;;;;;;;;;5.00;5.00;;;;;;;;5071378;28;9782;-67
2024/02/13 16:07:26;;;;;;;;;3.00;3.00;;;;;;;;5071444;28;10049;-66
2024/02/13 16:09:53;;;;;;;;;4.00;4.00;;;;;;;;5073031;28;8867;-66
2024/02/13 16:12:18;;;;;;;;;3.25;2.75;;;;;;;;5073199;28;9902;-66
2024/02/13 16:14:44;;;;;;;;;2.50;2.50;;;;;;;;5073037;28;9805;-67
2024/02/13 16:17:11;;;;;;;;;3.00;2.50;;;;;;;;5073431;28;8782;-66
2024/02/13 16:19:36;;;;;;;;;3.00;2.00;;;;;;;;5071337;28;8834;-67
2024/02/13 16:22:03;;;;;;;;;3.00;2.00;;;;;;;;5072903;28;9921;-67
2024/02/13 16:24:28;;;;;;;;;3.00;3.00;;;;;;;;5072494;28;8790;-67
2024/02/13 16:26:54;;;;;;;;;5.00;5.00;;;;;;;;5072774;28;9878;-71
2024/02/13 16:29:20;;;;;;;;;5.50;4.00;;;;;;;;5072611;28;8771;-72
2024/02/13 16:31:45;;;;;;;;;5.50;4.25;;;;;;;;5072909;28;8867;-73
2024/02/13 16:34:10;;;;;;;;;7.00;5.00;;;;;;;;5072730;28;8787;-74
2024/02/13 16:36:35;;;;;;;;;5.00;5.00;;;;;;;;5072367;28;8844;-68
2024/02/13 16:39:01;;;;;;;;;9.00;9.00;;;;;;;;5072608;28;8897;-70
2024/02/13 16:41:26;;;;;;;;;11.25;8.00;;;;;;;;5072679;28;9017;-69
2024/02/13 16:43:51;;;;;;;;;11.00;10.25;;;;;;;;5072370;28;8834;-72
2024/02/13 16:46:21;;;;;;;;;12.75;11.50;;;;;;;;5072467;28;8779;-71
2024/02/13 16:48:47;;;;;;;;;11.00;10.00;;;;;;;;5072626;28;8814;-72
2024/02/13 16:51:12;;;;;;;;;10.75;9.00;;;;;;;;5071986;28;11023;-73
2024/02/13 16:53:38;;;;;;;;;12.75;9.25;;;;;;;;5072411;28;8795;-72
2024/02/13 16:56:04;;;;;;;;;11.50;9.00;;;;;;;;5072290;28;8818;-71
2024/02/13 16:58:29;;;;;;;;;8.00;8.00;;;;;;;;5072241;28;8856;-72
2024/02/13 17:00:55;;;;;;;;;9.50;7.75;;;;;;;;5070889;28;8816;-72
2024/02/13 17:03:20;;;;;;;;;14.75;12.00;;;;;;;;5072398;28;8822;-71
2024/02/13 17:05:45;;;;;;;;;12.75;11.25;;;;;;;;5070341;28;8811;-71
2024/02/13 17:08:11;;;;;;;;;16.75;12.00;;;;;;;;5069985;28;9591;-72
2024/02/13 17:10:36;;;;;;;;;12.00;11.00;;;;;;;;5071786;28;8815;-70
2024/02/13 17:13:03;;;;;;;;;12.25;11.25;;;;;;;;5070415;28;8883;-71
2024/02/13 17:15:28;;;;;;;;;11.50;11.25;;;;;;;;5070996;28;9634;-72
2024/02/13 17:17:54;;;;;;;;;11.75;11.75;;;;;;;;5070820;28;10702;-71
2024/02/13 17:20:19;;;;;;;;;10.00;10.00;;;;;;;;5071084;28;8858;-74
2024/02/13 17:22:46;;;;;;;;;12.50;11.00;;;;;;;;5071346;28;8830;-71
2024/02/13 17:25:11;;;;;;;;;10.50;10.50;;;;;;;;5072936;28;8807;-71
2024/02/13 17:27:37;;;;;;;;;13.25;11.00;;;;;;;;5080680;28;11487;-69
2024/02/13 17:30:04;;;;;;;;;16.75;10.00;;;;;;;;5089588;28;8819;-71
2024/02/13 17:32:30;;;;;;;;;16.75;15.75;;;;;;;;5091867;28;8802;-71
2024/02/13 17:34:55;;;;;;;;;13.75;12.75;;;;;;;;5070353;28;10899;-72
2024/02/13 17:37:20;;;;;;;;;64.25;52.25;;;;;;;;5082628;28;9561;-70
2024/02/13 17:39:46;;;;;;;;;74.67;57.33;;;;;;;;5091621;28;8901;-72
2024/02/13 17:42:11;;;;;;;;;66.75;53.25;;;;;;;;5091038;28;8828;-74
2024/02/13 17:44:36;;;;;;;;;32.25;27.75;;;;;;;;5074531;28;8877;-73
2024/02/13 17:47:02;;;;;;;;;11.50;8.75;;;;;;;;5080314;28;8812;-87
2024/02/13 17:49:27;;;;;;;;;27.75;23.50;;;;;;;;5079367;28;8921;-75
2024/02/13 17:51:52;;;;;;;;;23.50;21.50;;;;;;;;5069385;28;8834;-78
2024/02/13 17:54:17;;;;;;;;;18.50;18.50;;;;;;;;5102521;27;9611;-76
2024/02/13 17:56:43;;;;;;;;;22.00;17.50;;;;;;;;5070662;28;8859;-75
2024/02/13 17:59:08;;;;;;;;;13.25;11.00;;;;;;;;5069724;28;8799;-72
2024/02/13 18:01:34;;;;;;;;;17.50;15.75;;;;;;;;5070584;28;8795;-76
2024/02/13 18:03:59;;;;;;;;;17.75;16.75;;;;;;;;5068359;28;8814;-72
2024/02/13 18:06:24;;;;;;;;;18.75;15.25;;;;;;;;5068629;28;8823;-71
2024/02/13 18:08:50;;;;;;;;;15.00;12.00;;;;;;;;5070343;28;8786;-74
2024/02/13 18:11:15;;;;;;;;;16.50;14.50;;;;;;;;5050478;28;8847;-74
2024/02/13 18:13:41;;;;;;;;;16.00;13.50;;;;;;;;5055446;28;8802;-72
2024/02/13 18:16:07;;;;;;;;;14.00;13.25;;;;;;;;5067070;28;8931;-80
2024/02/13 18:18:32;;;;;;;;;13.50;13.50;;;;;;;;5068720;28;8972;-69
2024/02/13 18:20:57;;;;;;;;;13.00;12.25;;;;;;;;5067081;28;8826;-74
2024/02/13 18:23:23;;;;;;;;;14.25;14.25;;;;;;;;5067703;28;8846;-68
2024/02/13 18:25:48;;;;;;;;;14.00;14.00;;;;;;;;5068113;28;8825;-72
2024/02/13 18:28:13;;;;;;;;;15.25;13.75;;;;;;;;5067936;28;8791;-72
2024/02/13 18:30:40;;;;;;;;;19.50;15.00;;;;;;;;5068666;28;8825;-76
2024/02/13 18:33:07;;;;;;;;;14.75;14.00;;;;;;;;5068516;28;8802;-75
2024/02/13 18:35:34;;;;;;;;;16.00;13.75;;;;;;;;5088217;28;11353;-80
2024/02/13 18:38:00;;;;;;;;;16.00;15.50;;;;;;;;5069702;28;11178;-71
2024/02/13 18:40:25;;;;;;;;;20.75;20.50;;;;;;;;5068244;28;12239;-71
2024/02/13 18:42:53;;;;;;;;;17.25;15.00;;;;;;;;5067477;28;8874;-75
2024/02/13 18:45:18;;;;;;;;;18.00;17.50;;;;;;;;5070105;28;8825;-72
2024/02/13 18:47:44;;;;;;;;;20.50;16.00;;;;;;;;5084409;28;11433;-73
2024/02/13 18:50:10;;;;;;;;;30.00;27.00;;;;;;;;5073391;28;8790;-76
2024/02/13 18:52:36;;;;;;;;;34.25;29.25;;;;;;;;5070106;28;8830;-74
2024/02/13 18:55:08;;;;;;;;;29.50;25.75;;;;;;;;5086400;28;11526;-73
2024/02/13 18:57:33;;;;;;;;;41.25;32.00;;;;;;;;5089841;28;11438;-73
2024/02/13 19:00:05;;;;;;;;;35.50;32.75;;;;;;;;5089113;28;11526;-75
2024/02/13 19:02:30;;;;;;;;;38.25;35.00;;;;;;;;5090113;28;8858;-75
2024/02/13 19:04:56;;;;;;;;;33.50;29.50;;;;;;;;5087046;28;11510;-74
2024/02/13 19:07:22;;;;;;;;;34.25;31.00;;;;;;;;5089967;28;9580;-74
2024/02/13 19:09:47;;;;;;;;;30.25;27.00;;;;;;;;5090351;28;11484;-74
2024/02/13 19:12:12;;;;;;;;;15.50;12.25;;;;;;;;5088988;28;8930;-75
2024/02/13 19:14:38;;;;;;;;;22.50;20.25;;;;;;;;5072205;28;8818;-76
2024/02/13 19:17:06;;;;;;;;;21.25;20.25;;;;;;;;5076406;28;8812;-78
2024/02/13 19:19:34;;;;;;;;;16.50;15.25;;;;;;;;5078788;28;8824;-74
2024/02/13 19:22:00;;;;;;;;;20.25;19.25;;;;;;;;5068396;28;11542;-72
2024/02/13 19:24:28;;;;;;;;;19.75;19.25;;;;;;;;5067421;28;11461;-70
2024/02/13 19:26:56;;;;;;;;;18.25;16.00;;;;;;;;5081751;28;8823;-70
